createdAt,value
2023-05-28T00:01:34.521Z,12.10
2023-05-28T00:04:07.663Z,12.00
2023-05-28T00:06:40.980Z,12.10
2023-05-28T00:09:14.086Z,12.10
2023-05-28T00:11:47.390Z,12.00
2023-05-28T00:14:21.155Z,12.00
2023-05-28T00:16:56.337Z,11.90
2023-05-28T00:19:29.607Z,11.70
2023-05-28T00:22:02.762Z,11.60
2023-05-28T00:24:36.262Z,11.60
2023-05-28T00:27:09.408Z,11.50
2023-05-28T00:29:44.696Z,11.50
2023-05-28T00:32:19.198Z,11.40
2023-05-28T00:34:52.291Z,11.40
2023-05-28T00:37:25.454Z,11.40
2023-05-28T00:39:58.613Z,11.40
2023-05-28T00:42:32.133Z,11.40
2023-05-28T00:45:06.238Z,11.40
2023-05-28T00:47:41.452Z,11.30
2023-05-28T00:50:17.803Z,11.40
2023-05-28T00:52:53.127Z,11.30
2023-05-28T00:55:26.842Z,11.30
2023-05-28T00:58:06.603Z,11.20
2023-05-28T01:00:40.610Z,11.20
2023-05-28T01:03:15.120Z,11.20
2023-05-28T01:05:48.590Z,11.10
2023-05-28T01:08:21.867Z,11.10
2023-05-28T01:10:55.112Z,11.10
2023-05-28T01:13:28.367Z,11.10
2023-05-28T01:20:14.933Z,11.00
2023-05-28T01:22:54.780Z,11.00
2023-05-28T01:25:30.059Z,11.00
2023-05-28T01:28:03.686Z,10.90
2023-05-28T01:30:36.765Z,10.90
2023-05-28T01:33:09.882Z,10.80
2023-05-28T01:35:43.582Z,10.80
2023-05-28T01:38:18.788Z,10.70
2023-05-28T01:40:56.039Z,10.70
2023-05-28T01:43:29.725Z,10.70
2023-05-28T01:46:03.710Z,10.70
2023-05-28T01:48:36.993Z,10.60
2023-05-28T01:51:10.065Z,10.50
2023-05-28T01:53:43.124Z,10.50
2023-05-28T01:56:17.848Z,10.50
2023-05-28T01:58:50.914Z,10.40
2023-05-28T02:01:33.514Z,10.40
2023-05-28T02:04:06.704Z,10.40
2023-05-28T02:06:42.250Z,10.30
2023-05-28T02:09:15.499Z,10.20
2023-05-28T02:11:50.390Z,10.30
2023-05-28T02:14:23.495Z,10.20
2023-05-28T02:16:56.560Z,10.20
2023-05-28T02:19:29.736Z,10.20
2023-05-28T02:22:02.890Z,10.30
2023-05-28T02:24:35.993Z,10.30
2023-05-28T02:27:10.979Z,10.30
2023-05-28T02:29:44.528Z,10.30
2023-05-28T02:32:17.619Z,10.30
2023-05-28T02:34:51.770Z,10.20
2023-05-28T02:37:25.514Z,10.20
2023-05-28T02:39:58.586Z,10.10
2023-05-28T02:42:33.057Z,10.10
2023-05-28T02:45:07.739Z,10.10
2023-05-28T02:47:41.137Z,10.10
2023-05-28T02:50:14.305Z,10.10
2023-05-28T02:52:47.399Z,10.00
2023-05-28T02:55:20.541Z,9.90
2023-05-28T02:57:55.301Z,9.90
2023-05-28T03:00:28.437Z,9.90
2023-05-28T03:03:01.770Z,9.80
2023-05-28T03:05:34.986Z,9.80
2023-05-28T03:08:08.080Z,9.80
2023-05-28T03:10:41.181Z,9.80
2023-05-28T03:13:15.623Z,9.80
2023-05-28T03:15:48.722Z,9.80
2023-05-28T03:18:21.791Z,9.80
2023-05-28T03:20:55.008Z,9.80
2023-05-28T03:23:28.082Z,9.80
2023-05-28T03:26:01.148Z,9.70
2023-05-28T03:28:35.659Z,9.70
2023-05-28T03:31:08.749Z,9.70
2023-05-28T03:33:41.848Z,9.70
2023-05-28T03:36:14.874Z,9.70
2023-05-28T03:38:48.147Z,9.70
2023-05-28T03:41:21.485Z,9.70
2023-05-28T03:43:55.848Z,9.70
2023-05-28T03:46:28.990Z,9.60
2023-05-28T03:49:02.150Z,9.60
2023-05-28T03:51:35.371Z,9.70
2023-05-28T03:54:08.474Z,9.70
2023-05-28T03:56:41.721Z,9.60
2023-05-28T03:59:16.160Z,9.70
2023-05-28T04:01:49.247Z,9.60
2023-05-28T04:04:22.581Z,9.70
2023-05-28T04:06:55.795Z,9.80
2023-05-28T04:09:29.089Z,9.80
2023-05-28T04:12:03.972Z,9.80
2023-05-28T04:14:38.363Z,9.80
2023-05-28T04:17:13.856Z,9.80
2023-05-28T04:19:46.946Z,9.80
2023-05-28T04:22:19.974Z,9.80
2023-05-28T04:24:56.658Z,9.90
2023-05-28T04:27:29.775Z,9.90
2023-05-28T04:30:04.485Z,9.90
2023-05-28T04:32:40.271Z,9.80
2023-05-28T04:35:13.713Z,9.90
2023-05-28T04:37:46.905Z,10.00
2023-05-28T04:40:19.983Z,10.00
2023-05-28T04:42:54.896Z,10.00
2023-05-28T04:45:29.348Z,10.10
2023-05-28T04:48:03.232Z,10.10
2023-05-28T04:50:37.604Z,10.20
2023-05-28T04:53:10.639Z,10.30
2023-05-28T04:55:43.830Z,10.50
2023-05-28T04:58:16.942Z,10.80
2023-05-28T05:00:52.226Z,11.10
2023-05-28T05:03:25.451Z,11.40
2023-05-28T05:05:58.640Z,11.70
2023-05-28T05:08:31.943Z,12.00
2023-05-28T05:11:07.551Z,12.10
2023-05-28T05:13:40.905Z,12.20
2023-05-28T05:16:15.430Z,12.40
2023-05-28T05:18:48.688Z,12.60
2023-05-28T05:21:22.342Z,13.10
2023-05-28T05:23:55.533Z,13.40
2023-05-28T05:26:28.643Z,13.70
2023-05-28T05:29:01.792Z,14.10
2023-05-28T05:31:36.413Z,14.40
2023-05-28T05:34:09.580Z,14.50
2023-05-28T05:36:42.714Z,14.90
2023-05-28T05:39:16.109Z,15.10
2023-05-28T05:41:49.223Z,15.40
2023-05-28T05:44:22.944Z,15.60
2023-05-28T05:46:57.612Z,15.90
2023-05-28T05:49:30.761Z,16.10
2023-05-28T05:52:03.868Z,16.50
2023-05-28T05:54:36.992Z,16.70
2023-05-28T05:57:11.056Z,16.80
2023-05-28T05:59:44.350Z,17.10
2023-05-28T06:02:19.097Z,17.40
2023-05-28T06:04:52.964Z,17.80
2023-05-28T06:07:26.199Z,18.00
2023-05-28T06:09:59.423Z,18.10
2023-05-28T06:12:32.552Z,18.30
2023-05-28T06:15:07.671Z,18.30
2023-05-28T06:17:42.532Z,18.40
2023-05-28T06:20:16.247Z,18.50
2023-05-28T06:22:49.467Z,18.70
2023-05-28T06:25:23.467Z,19.00
2023-05-28T06:27:56.912Z,19.40
2023-05-28T06:30:30.543Z,19.80
2023-05-28T06:33:05.192Z,19.80
2023-05-28T06:35:38.545Z,20.20
2023-05-28T06:38:11.749Z,20.70
2023-05-28T06:44:29.606Z,21.10
2023-05-28T06:47:02.856Z,21.30
2023-05-28T06:49:37.539Z,21.70
2023-05-28T06:52:10.754Z,21.90
2023-05-28T06:54:43.941Z,21.80
2023-05-28T06:57:17.064Z,22.10
2023-05-28T06:59:50.212Z,22.20
2023-05-28T07:02:23.291Z,22.30
2023-05-28T07:04:57.913Z,22.40
2023-05-28T07:07:31.368Z,22.60
2023-05-28T07:10:05.183Z,22.90
2023-05-28T07:12:38.397Z,23.20
2023-05-28T07:15:12.554Z,23.50
2023-05-28T07:17:59.828Z,23.60
2023-05-28T07:20:34.449Z,23.80
2023-05-28T07:23:07.724Z,24.00
2023-05-28T07:25:42.696Z,24.20
2023-05-28T07:28:15.951Z,24.70
2023-05-28T07:30:49.140Z,24.10
2023-05-28T07:33:22.341Z,23.80
2023-05-28T07:35:57.364Z,24.10
2023-05-28T07:38:30.521Z,24.40
2023-05-28T07:41:03.671Z,24.60
2023-05-28T07:43:36.883Z,24.70
2023-05-28T07:46:10.099Z,24.70
2023-05-28T07:48:44.603Z,25.00
2023-05-28T07:51:19.647Z,25.10
2023-05-28T07:53:53.038Z,25.30
2023-05-28T07:56:27.318Z,25.50
2023-05-28T07:59:00.487Z,25.80
2023-05-28T08:01:35.412Z,25.40
2023-05-28T08:04:08.751Z,25.00
2023-05-28T08:06:43.472Z,25.30
2023-05-28T08:09:18.647Z,25.40
2023-05-28T08:11:52.141Z,25.50
2023-05-28T08:14:25.493Z,25.40
2023-05-28T08:16:58.771Z,24.90
2023-05-28T08:19:32.048Z,25.10
2023-05-28T08:22:07.702Z,26.10
2023-05-28T08:24:41.204Z,25.80
2023-05-28T08:27:14.449Z,25.70
2023-05-28T08:29:48.125Z,25.50
2023-05-28T08:32:21.643Z,25.30
2023-05-28T08:34:54.978Z,25.50
2023-05-28T08:37:29.530Z,25.90
2023-05-28T08:40:02.736Z,25.20
2023-05-28T08:42:36.098Z,25.20
2023-05-28T08:45:10.378Z,25.60
2023-05-28T08:47:44.786Z,25.50
2023-05-28T08:50:18.339Z,25.40
2023-05-28T08:52:53.860Z,25.40
2023-05-28T08:55:27.054Z,26.00
2023-05-28T08:58:00.523Z,25.90
2023-05-28T09:00:33.931Z,25.90
2023-05-28T09:03:09.238Z,26.10
2023-05-28T09:05:42.719Z,26.30
2023-05-28T09:08:17.444Z,26.50
2023-05-28T09:10:50.640Z,26.40
2023-05-28T09:13:23.980Z,25.90
2023-05-28T09:15:58.659Z,25.50
2023-05-28T09:18:32.196Z,25.90
2023-05-28T09:21:11.875Z,26.00
2023-05-28T09:23:52.333Z,26.00
2023-05-28T09:26:28.685Z,25.70
2023-05-28T09:29:02.400Z,25.40
2023-05-28T09:31:35.618Z,25.20
2023-05-28T09:34:08.918Z,24.90
2023-05-28T09:36:42.855Z,24.60
2023-05-28T09:39:17.369Z,24.40
2023-05-28T09:42:01.517Z,24.20
2023-05-28T09:44:35.624Z,24.40
2023-05-28T09:47:16.012Z,24.60
2023-05-28T09:49:50.962Z,24.60
2023-05-28T09:52:25.220Z,24.90
2023-05-28T09:55:01.140Z,25.10
2023-05-28T09:57:36.112Z,25.30
2023-05-28T10:00:21.015Z,25.40
2023-05-28T10:03:12.610Z,25.40
2023-05-28T10:05:51.312Z,24.90
2023-05-28T10:08:27.005Z,24.70
2023-05-28T10:11:01.620Z,25.10
2023-05-28T10:13:34.931Z,24.90
2023-05-28T10:16:08.796Z,24.70
2023-05-28T10:18:44.229Z,24.90
2023-05-28T10:21:17.999Z,24.80
2023-05-28T10:23:51.584Z,24.70
2023-05-28T10:26:27.208Z,24.50
2023-05-28T10:29:01.177Z,24.40
2023-05-28T10:31:34.406Z,24.10
2023-05-28T10:34:18.001Z,24.40
2023-05-28T10:37:03.344Z,24.70
2023-05-28T10:39:41.589Z,25.10
2023-05-28T10:42:19.739Z,25.20
2023-05-28T10:45:07.727Z,25.20
2023-05-28T10:47:44.187Z,25.20
2023-05-28T10:50:20.163Z,24.80
2023-05-28T10:53:08.039Z,24.80
2023-05-28T10:55:52.824Z,25.10
2023-05-28T10:58:29.309Z,24.60
2023-05-28T11:01:06.463Z,24.40
2023-05-28T11:03:45.101Z,24.30
2023-05-28T11:06:19.303Z,24.60
2023-05-28T11:08:52.535Z,24.80
2023-05-28T11:11:28.279Z,24.70
2023-05-28T11:14:04.070Z,24.70
2023-05-28T11:16:37.341Z,24.60
2023-05-28T11:19:11.597Z,24.50
2023-05-28T11:21:54.761Z,24.20
2023-05-28T11:24:27.973Z,24.20
2023-05-28T11:27:01.200Z,24.40
2023-05-28T11:29:35.717Z,24.40
2023-05-28T11:32:09.290Z,24.30
2023-05-28T11:34:42.574Z,24.70
2023-05-28T11:37:15.851Z,24.70
2023-05-28T11:39:52.676Z,24.60
2023-05-28T11:42:27.420Z,24.70
2023-05-28T11:45:01.939Z,24.40
2023-05-28T11:47:36.820Z,24.50
2023-05-28T11:50:12.204Z,24.70
2023-05-28T11:52:46.164Z,24.60
2023-05-28T11:55:20.149Z,24.60
2023-05-28T11:57:56.450Z,24.50
2023-05-28T12:00:36.627Z,24.30
2023-05-28T12:03:13.083Z,24.40
2023-05-28T12:05:46.728Z,24.40
2023-05-28T12:08:21.672Z,24.50
2023-05-28T12:10:55.126Z,24.30
2023-05-28T12:13:34.375Z,24.30
2023-05-28T12:16:10.499Z,24.20
2023-05-28T12:18:44.159Z,24.20
2023-05-28T12:21:21.467Z,24.30
2023-05-28T12:23:56.238Z,24.50
2023-05-28T12:26:30.305Z,24.70
2023-05-28T12:29:03.541Z,24.60
2023-05-28T12:31:38.218Z,24.40
2023-05-28T12:34:11.381Z,24.30
2023-05-28T12:36:44.710Z,24.50
2023-05-28T12:39:17.857Z,24.40
2023-05-28T12:41:51.024Z,24.30
2023-05-28T12:44:24.179Z,24.20
2023-05-28T12:46:58.808Z,24.10
2023-05-28T12:49:32.006Z,24.10
2023-05-28T12:52:05.663Z,24.30
2023-05-28T12:54:38.825Z,24.50
2023-05-28T12:57:12.980Z,24.70
2023-05-28T12:59:46.348Z,24.50
2023-05-28T13:02:21.290Z,24.50
2023-05-28T13:04:54.780Z,24.50
2023-05-28T13:07:28.526Z,24.40
2023-05-28T13:10:01.738Z,24.50
2023-05-28T13:12:37.840Z,24.30
2023-05-28T13:15:12.436Z,24.30
2023-05-28T13:17:47.389Z,24.20
2023-05-28T13:20:20.928Z,24.30
2023-05-28T13:22:54.148Z,24.20
2023-05-28T13:25:27.339Z,24.10
2023-05-28T13:28:02.898Z,24.10
2023-05-28T13:30:36.373Z,24.20
2023-05-28T13:33:11.003Z,24.30
2023-05-28T13:35:44.207Z,24.20
2023-05-28T13:38:18.022Z,24.30
2023-05-28T13:40:51.218Z,24.30
2023-05-28T13:43:24.502Z,24.60
2023-05-28T13:45:57.715Z,24.70
2023-05-28T13:48:32.449Z,24.70
2023-05-28T13:51:06.857Z,24.50
2023-05-28T13:53:40.388Z,24.60
2023-05-28T13:56:13.698Z,24.40
2023-05-28T13:58:46.880Z,24.60
2023-05-28T14:01:20.195Z,24.70
2023-05-28T14:03:54.991Z,24.70
2023-05-28T14:06:28.454Z,24.80
2023-05-28T14:09:01.674Z,24.80
2023-05-28T14:12:03.941Z,24.80
2023-05-28T14:14:28.124Z,24.80
2023-05-28T14:17:01.598Z,24.80
2023-05-28T14:19:36.348Z,24.50
2023-05-28T14:22:09.666Z,24.50
2023-05-28T14:24:42.840Z,24.20
2023-05-28T14:27:16.154Z,24.20
2023-05-28T14:29:49.325Z,24.30
2023-05-28T14:32:22.716Z,24.40
2023-05-28T14:34:57.486Z,24.40
2023-05-28T14:37:30.788Z,24.40
2023-05-28T14:40:05.637Z,24.30
2023-05-28T14:42:38.833Z,24.60
2023-05-28T14:45:12.468Z,24.40
2023-05-28T14:47:45.695Z,24.40
2023-05-28T14:50:21.033Z,24.50
2023-05-28T14:52:54.257Z,24.80
2023-05-28T14:55:27.598Z,25.00
2023-05-28T14:58:00.741Z,24.70
2023-05-28T15:00:33.925Z,24.80
2023-05-28T15:03:07.144Z,24.80
2023-05-28T15:05:41.745Z,24.50
2023-05-28T15:08:15.609Z,24.30
2023-05-28T15:10:48.893Z,24.40
2023-05-28T15:13:22.143Z,24.50
2023-05-28T15:15:55.617Z,24.30
2023-05-28T15:18:29.011Z,24.20
2023-05-28T15:21:03.684Z,24.40
2023-05-28T15:23:37.220Z,24.50
2023-05-28T15:26:10.849Z,24.50
2023-05-28T15:28:44.971Z,24.60
2023-05-28T15:31:21.493Z,24.40
2023-05-28T15:33:55.037Z,24.50
2023-05-28T15:36:31.901Z,24.30
2023-05-28T15:39:05.695Z,24.50
2023-05-28T15:41:39.355Z,24.40
2023-05-28T15:44:13.144Z,24.40
2023-05-28T15:46:46.663Z,24.30
2023-05-28T15:49:19.881Z,24.20
2023-05-28T15:51:54.583Z,24.20
2023-05-28T15:54:28.220Z,24.10
2023-05-28T15:57:01.918Z,24.10
2023-05-28T15:59:35.272Z,24.00
2023-05-28T16:02:09.776Z,24.00
2023-05-28T16:04:43.202Z,24.00
2023-05-28T16:07:18.239Z,23.90
2023-05-28T16:09:51.665Z,23.90
2023-05-28T16:12:26.541Z,23.90
2023-05-28T16:15:03.792Z,23.90
2023-05-28T16:17:40.243Z,23.90
2023-05-28T16:20:14.300Z,23.90
2023-05-28T16:22:49.574Z,23.80
2023-05-28T16:25:24.312Z,23.80
2023-05-28T16:27:57.738Z,23.80
2023-05-28T16:30:31.589Z,23.80
2023-05-28T16:33:05.610Z,23.70
2023-05-28T16:35:40.097Z,23.70
2023-05-28T16:38:15.227Z,23.70
2023-05-28T16:40:49.091Z,23.70
2023-05-28T16:43:23.179Z,23.80
2023-05-28T16:45:59.657Z,23.80
2023-05-28T16:48:34.350Z,23.70
2023-05-28T16:51:10.468Z,23.60
2023-05-28T16:53:45.199Z,23.50
2023-05-28T16:56:18.673Z,23.50
2023-05-28T16:58:51.978Z,23.50
2023-05-28T17:01:25.646Z,23.50
2023-05-28T17:03:58.948Z,23.50
2023-05-28T17:06:32.232Z,23.40
2023-05-28T17:09:09.806Z,23.30
2023-05-28T17:11:42.979Z,23.30
2023-05-28T17:14:16.810Z,23.20
2023-05-28T17:16:50.100Z,23.20
2023-05-28T17:19:23.687Z,23.20
2023-05-28T17:21:57.168Z,23.20
2023-05-28T17:24:31.748Z,23.20
2023-05-28T17:27:06.182Z,23.20
2023-05-28T17:29:39.326Z,23.10
2023-05-28T17:32:12.663Z,23.10
2023-05-28T17:34:45.990Z,23.00
2023-05-28T17:37:19.371Z,22.90
2023-05-28T17:39:54.404Z,22.90
2023-05-28T17:42:28.817Z,22.80
2023-05-28T17:45:02.453Z,22.80
2023-05-28T17:47:35.732Z,22.80
2023-05-28T17:50:10.983Z,22.70
2023-05-28T17:52:44.344Z,22.70
2023-05-28T17:55:19.128Z,22.60
2023-05-28T17:57:52.397Z,22.50
2023-05-28T18:00:25.606Z,22.50
2023-05-28T18:02:59.471Z,22.40
2023-05-28T18:05:33.257Z,22.40
2023-05-28T18:08:06.629Z,22.30
2023-05-28T18:10:41.785Z,22.20
2023-05-28T18:13:15.084Z,22.10
2023-05-28T18:15:49.378Z,22.10
2023-05-28T18:18:22.592Z,22.00
2023-05-28T18:20:56.147Z,22.00
2023-05-28T18:23:31.094Z,21.90
2023-05-28T18:26:06.337Z,21.90
2023-05-28T18:28:39.605Z,21.80
2023-05-28T18:31:12.950Z,21.70
2023-05-28T18:33:46.208Z,21.60
2023-05-28T18:36:19.392Z,21.60
2023-05-28T18:38:52.950Z,21.50
2023-05-28T18:41:27.555Z,21.30
2023-05-28T18:44:01.731Z,21.20
2023-05-28T18:46:35.238Z,21.10
2023-05-28T18:49:08.446Z,21.00
2023-05-28T18:51:41.637Z,20.90
2023-05-28T18:54:15.629Z,20.80
2023-05-28T18:56:50.317Z,20.60
2023-05-28T18:59:23.564Z,20.50
2023-05-28T19:01:57.060Z,20.30
2023-05-28T19:04:30.273Z,20.20
2023-05-28T19:07:04.214Z,20.10
2023-05-28T19:09:37.461Z,20.00
2023-05-28T19:12:11.969Z,19.90
2023-05-28T19:14:45.092Z,19.70
2023-05-28T19:17:18.293Z,19.60
2023-05-28T19:19:51.511Z,19.50
2023-05-28T19:22:24.768Z,19.40
2023-05-28T19:24:59.781Z,19.30
2023-05-28T19:27:34.313Z,19.20
2023-05-28T19:30:09.637Z,19.00
2023-05-28T19:32:42.829Z,19.00
2023-05-28T19:35:16.457Z,18.80
2023-05-28T19:37:51.564Z,18.70
2023-05-28T19:40:24.709Z,18.50
2023-05-28T19:42:59.262Z,18.40
2023-05-28T19:45:33.301Z,18.40
2023-05-28T19:48:06.712Z,18.30
2023-05-28T19:50:40.160Z,18.20
2023-05-28T19:53:13.565Z,18.10
2023-05-28T19:55:46.727Z,18.10
2023-05-28T19:58:22.390Z,18.00
2023-05-28T20:00:56.055Z,17.90
2023-05-28T20:03:29.346Z,17.80
2023-05-28T20:06:02.572Z,17.70
2023-05-28T20:08:35.862Z,17.60
2023-05-28T20:11:09.326Z,17.50
2023-05-28T20:13:44.074Z,17.40
2023-05-28T20:16:18.681Z,17.40
2023-05-28T20:18:55.881Z,17.20
2023-05-28T20:21:32.264Z,17.20
2023-05-28T20:24:06.061Z,17.10
2023-05-28T20:26:39.506Z,16.90
2023-05-28T20:29:15.287Z,16.80
2023-05-28T20:31:48.617Z,16.80
2023-05-28T20:34:21.884Z,16.60
2023-05-28T20:36:55.746Z,16.50
2023-05-28T20:39:30.026Z,16.50
2023-05-28T20:42:04.200Z,16.40
2023-05-28T20:44:38.803Z,16.30
2023-05-28T20:47:12.559Z,16.30
2023-05-28T20:49:45.854Z,16.20
2023-05-28T20:52:19.132Z,16.10
2023-05-28T20:54:52.496Z,16.10
2023-05-28T20:57:44.746Z,16.00
2023-05-28T21:00:22.590Z,16.00
2023-05-28T21:02:59.015Z,15.90
2023-05-28T21:05:32.441Z,15.80
2023-05-28T21:08:05.964Z,15.70
2023-05-28T21:10:40.645Z,15.70
2023-05-28T21:13:14.472Z,15.70
2023-05-28T21:15:49.240Z,15.70
2023-05-28T21:18:22.460Z,15.50
2023-05-28T21:20:57.356Z,15.50
2023-05-28T21:23:31.236Z,15.40
2023-05-28T21:26:04.435Z,15.30
2023-05-28T21:28:37.711Z,15.20
2023-05-28T21:31:12.372Z,15.20
2023-05-28T21:33:45.618Z,15.10
2023-05-28T21:36:18.845Z,15.00
2023-05-28T21:38:52.040Z,15.00
2023-05-28T21:41:25.194Z,14.90
2023-05-28T21:43:58.399Z,14.80
2023-05-28T21:46:33.038Z,14.80
2023-05-28T21:49:06.331Z,14.70
2023-05-28T21:51:39.894Z,14.70
2023-05-28T21:54:13.069Z,14.70
2023-05-28T21:56:46.257Z,14.60
2023-05-28T21:59:20.664Z,14.60
2023-05-28T22:01:55.231Z,14.50
2023-05-28T22:04:28.451Z,14.40
2023-05-28T22:07:01.700Z,14.40
2023-05-28T22:09:34.924Z,14.30
2023-05-28T22:12:09.052Z,14.20
2023-05-28T22:14:42.241Z,14.20
2023-05-28T22:17:19.210Z,14.10
2023-05-28T22:19:52.644Z,14.10
2023-05-28T22:22:25.905Z,14.00
2023-05-28T22:24:59.106Z,14.00
2023-05-28T22:27:32.325Z,13.90
2023-05-28T22:30:07.042Z,13.90
2023-05-28T22:32:41.628Z,13.90
2023-05-28T22:35:14.819Z,13.80
2023-05-28T22:37:49.127Z,13.80
2023-05-28T22:40:22.472Z,13.70
2023-05-28T22:42:55.607Z,13.70
2023-05-28T22:45:28.786Z,13.60
2023-05-28T22:48:05.850Z,13.60
2023-05-28T22:50:39.095Z,13.60
2023-05-28T22:53:12.561Z,13.60
2023-05-28T22:55:46.129Z,13.50
2023-05-28T22:58:19.257Z,13.50
2023-05-28T23:00:52.406Z,13.50
2023-05-28T23:03:27.550Z,13.50
2023-05-28T23:06:00.784Z,13.50
2023-05-28T23:08:33.874Z,13.40
2023-05-28T23:11:07.878Z,13.40
2023-05-28T23:13:41.006Z,13.40
2023-05-28T23:16:14.602Z,13.30
2023-05-28T23:18:51.073Z,13.30
2023-05-28T23:21:24.695Z,13.20
2023-05-28T23:23:58.202Z,13.20
2023-05-28T23:26:31.375Z,13.20
2023-05-28T23:29:05.196Z,13.30
2023-05-28T23:31:38.412Z,13.30
2023-05-28T23:34:13.677Z,13.30
2023-05-28T23:36:48.982Z,13.30
2023-05-28T23:39:23.801Z,13.30
2023-05-28T23:41:57.583Z,13.30
2023-05-28T23:44:31.219Z,13.20
2023-05-28T23:47:04.751Z,13.20
2023-05-28T23:49:39.285Z,13.10
2023-05-28T23:52:12.400Z,13.10
2023-05-28T23:54:45.570Z,13.10
2023-05-28T23:57:18.846Z,13.00
2023-05-28T23:59:51.967Z,13.00
